Terminal Aerodrome Forecast
Issued by NWS Nashville, TN

Home | Current Version | Previous Version | Text Only | Print | Product List | Glossary On
Versions: 1 2 3 4 5 6 7 8 9 10 11 12 13 14 15 16 17 18 19 20 21 22 23 24 25
000
FTUS44 KOHX 192015 AAB
TAFCSV
TAF AMD
KCSV 192015Z 1920/2018 16011G17KT P6SM SCT017 SCT025
     FM200400 18009G14KT P6SM OVC008 WS020/21050KT
     FM201500 18013G20KT P6SM OVC015=

USA.gov is the U.S. government's official web portal to all federal, state and local government web resources and services.